sensor_id;sensor_type;location;lat;lon;timestamp;temperature;humidity
37052;DHT22;22964;52.272;13.356;2023-08-06T00:00:07;22.00;62.80
37052;DHT22;22964;52.272;13.356;2023-08-06T00:02:34;22.00;63.00
37052;DHT22;22964;52.272;13.356;2023-08-06T00:05:00;22.00;63.10
37052;DHT22;22964;52.272;13.356;2023-08-06T00:07:26;22.00;63.30
37052;DHT22;22964;52.272;13.356;2023-08-06T00:09:52;22.00;63.30
37052;DHT22;22964;52.272;13.356;2023-08-06T00:12:18;22.00;63.30
37052;DHT22;22964;52.272;13.356;2023-08-06T00:14:44;22.00;63.30
37052;DHT22;22964;52.272;13.356;2023-08-06T00:17:09;22.00;63.50
37052;DHT22;22964;52.272;13.356;2023-08-06T00:19:35;22.00;64.40
37052;DHT22;22964;52.272;13.356;2023-08-06T00:22:01;22.00;63.50
37052;DHT22;22964;52.272;13.356;2023-08-06T00:24:27;22.00;63.70
37052;DHT22;22964;52.272;13.356;2023-08-06T00:26:55;22.00;63.80
37052;DHT22;22964;52.272;13.356;2023-08-06T00:29:21;21.90;63.80
37052;DHT22;22964;52.272;13.356;2023-08-06T00:31:46;21.90;64.00
37052;DHT22;22964;52.272;13.356;2023-08-06T00:34:12;22.00;64.10
37052;DHT22;22964;52.272;13.356;2023-08-06T00:36:38;21.90;64.10
37052;DHT22;22964;52.272;13.356;2023-08-06T00:39:04;21.90;64.20
37052;DHT22;22964;52.272;13.356;2023-08-06T00:41:30;21.90;64.30
37052;DHT22;22964;52.272;13.356;2023-08-06T00:43:55;21.90;64.30
37052;DHT22;22964;52.272;13.356;2023-08-06T00:46:21;21.90;64.40
37052;DHT22;22964;52.272;13.356;2023-08-06T00:48:47;21.90;64.70
37052;DHT22;22964;52.272;13.356;2023-08-06T00:51:13;21.90;64.60
37052;DHT22;22964;52.272;13.356;2023-08-06T00:53:39;21.80;64.80
37052;DHT22;22964;52.272;13.356;2023-08-06T00:56:06;21.80;64.90
37052;DHT22;22964;52.272;13.356;2023-08-06T00:58:33;21.80;65.40
37052;DHT22;22964;52.272;13.356;2023-08-06T01:01:00;21.80;65.30
37052;DHT22;22964;52.272;13.356;2023-08-06T01:03:26;21.80;65.40
37052;DHT22;22964;52.272;13.356;2023-08-06T01:05:52;21.80;65.40
37052;DHT22;22964;52.272;13.356;2023-08-06T01:13:43;21.70;66.40
37052;DHT22;22964;52.272;13.356;2023-08-06T01:16:15;21.80;65.50
37052;DHT22;22964;52.272;13.356;2023-08-06T01:18:40;21.70;66.00
37052;DHT22;22964;52.272;13.356;2023-08-06T01:21:07;21.70;65.80
37052;DHT22;22964;52.272;13.356;2023-08-06T01:23:33;21.70;66.00
37052;DHT22;22964;52.272;13.356;2023-08-06T01:26:30;21.70;66.20
37052;DHT22;22964;52.272;13.356;2023-08-06T01:32:16;21.60;67.30
37052;DHT22;22964;52.272;13.356;2023-08-06T01:34:44;21.70;66.20
37052;DHT22;22964;52.272;13.356;2023-08-06T01:37:11;21.60;66.70
37052;DHT22;22964;52.272;13.356;2023-08-06T01:39:37;21.60;66.80
37052;DHT22;22964;52.272;13.356;2023-08-06T01:42:06;21.60;66.80
37052;DHT22;22964;52.272;13.356;2023-08-06T01:44:33;21.50;67.20
37052;DHT22;22964;52.272;13.356;2023-08-06T01:46:59;21.50;67.10
37052;DHT22;22964;52.272;13.356;2023-08-06T01:49:25;21.50;67.30
37052;DHT22;22964;52.272;13.356;2023-08-06T01:51:50;21.50;67.50
37052;DHT22;22964;52.272;13.356;2023-08-06T01:54:16;21.50;67.60
37052;DHT22;22964;52.272;13.356;2023-08-06T01:56:43;21.50;67.70
37052;DHT22;22964;52.272;13.356;2023-08-06T01:59:09;21.50;67.80
37052;DHT22;22964;52.272;13.356;2023-08-06T02:01:34;21.50;67.90
37052;DHT22;22964;52.272;13.356;2023-08-06T02:04:00;21.50;68.10
37052;DHT22;22964;52.272;13.356;2023-08-06T02:06:26;21.50;68.20
37052;DHT22;22964;52.272;13.356;2023-08-06T02:08:52;21.40;68.30
37052;DHT22;22964;52.272;13.356;2023-08-06T02:11:17;21.40;68.30
37052;DHT22;22964;52.272;13.356;2023-08-06T02:13:43;21.40;68.50
37052;DHT22;22964;52.272;13.356;2023-08-06T02:16:14;21.40;68.80
37052;DHT22;22964;52.272;13.356;2023-08-06T02:18:40;21.30;68.60
37052;DHT22;22964;52.272;13.356;2023-08-06T02:21:06;21.40;68.70
37052;DHT22;22964;52.272;13.356;2023-08-06T02:23:31;21.30;68.70
37052;DHT22;22964;52.272;13.356;2023-08-06T02:25:59;21.30;68.70
37052;DHT22;22964;52.272;13.356;2023-08-06T02:28:25;21.30;68.90
37052;DHT22;22964;52.272;13.356;2023-08-06T02:30:51;21.30;69.70
37052;DHT22;22964;52.272;13.356;2023-08-06T02:33:17;21.30;68.90
37052;DHT22;22964;52.272;13.356;2023-08-06T02:35:42;21.20;68.90
37052;DHT22;22964;52.272;13.356;2023-08-06T02:38:08;21.30;69.10
37052;DHT22;22964;52.272;13.356;2023-08-06T02:40:34;21.30;69.30
37052;DHT22;22964;52.272;13.356;2023-08-06T02:42:59;21.30;69.40
37052;DHT22;22964;52.272;13.356;2023-08-06T02:45:25;21.30;69.50
37052;DHT22;22964;52.272;13.356;2023-08-06T02:47:51;21.20;69.60
37052;DHT22;22964;52.272;13.356;2023-08-06T02:50:16;21.20;69.70
37052;DHT22;22964;52.272;13.356;2023-08-06T02:52:42;21.20;69.70
37052;DHT22;22964;52.272;13.356;2023-08-06T02:55:09;21.20;69.90
37052;DHT22;22964;52.272;13.356;2023-08-06T02:57:39;21.20;69.80
37052;DHT22;22964;52.272;13.356;2023-08-06T03:00:05;21.20;69.90
37052;DHT22;22964;52.272;13.356;2023-08-06T03:02:31;21.20;70.00
37052;DHT22;22964;52.272;13.356;2023-08-06T03:05:03;21.20;70.10
37052;DHT22;22964;52.272;13.356;2023-08-06T03:07:33;21.20;70.20
37052;DHT22;22964;52.272;13.356;2023-08-06T03:10:08;21.20;70.00
37052;DHT22;22964;52.272;13.356;2023-08-06T03:12:34;21.20;70.00
37052;DHT22;22964;52.272;13.356;2023-08-06T03:15:02;21.20;70.10
37052;DHT22;22964;52.272;13.356;2023-08-06T03:17:28;21.20;70.20
37052;DHT22;22964;52.272;13.356;2023-08-06T03:19:54;21.20;70.20
37052;DHT22;22964;52.272;13.356;2023-08-06T03:22:19;21.10;70.10
37052;DHT22;22964;52.272;13.356;2023-08-06T03:24:45;21.10;70.20
37052;DHT22;22964;52.272;13.356;2023-08-06T03:27:12;21.10;70.20
37052;DHT22;22964;52.272;13.356;2023-08-06T03:29:40;21.10;70.40
37052;DHT22;22964;52.272;13.356;2023-08-06T03:32:06;21.10;70.50
37052;DHT22;22964;52.272;13.356;2023-08-06T03:34:32;21.10;70.60
37052;DHT22;22964;52.272;13.356;2023-08-06T03:36:58;21.10;70.70
37052;DHT22;22964;52.272;13.356;2023-08-06T03:39:23;21.10;70.80
37052;DHT22;22964;52.272;13.356;2023-08-06T03:41:49;21.10;70.90
37052;DHT22;22964;52.272;13.356;2023-08-06T03:44:15;21.10;70.90
37052;DHT22;22964;52.272;13.356;2023-08-06T03:46:42;21.10;71.00
37052;DHT22;22964;52.272;13.356;2023-08-06T03:49:08;21.10;71.20
37052;DHT22;22964;52.272;13.356;2023-08-06T03:51:34;21.10;71.20
37052;DHT22;22964;52.272;13.356;2023-08-06T03:54:01;21.10;71.20
37052;DHT22;22964;52.272;13.356;2023-08-06T03:56:26;21.10;71.30
37052;DHT22;22964;52.272;13.356;2023-08-06T03:58:53;21.10;71.30
37052;DHT22;22964;52.272;13.356;2023-08-06T04:01:18;21.10;71.40
37052;DHT22;22964;52.272;13.356;2023-08-06T04:03:46;21.10;71.40
37052;DHT22;22964;52.272;13.356;2023-08-06T04:06:12;21.10;71.40
37052;DHT22;22964;52.272;13.356;2023-08-06T04:08:37;21.00;71.30
37052;DHT22;22964;52.272;13.356;2023-08-06T04:11:03;21.00;71.30
37052;DHT22;22964;52.272;13.356;2023-08-06T04:13:29;21.10;71.50
37052;DHT22;22964;52.272;13.356;2023-08-06T04:16:03;21.00;71.40
37052;DHT22;22964;52.272;13.356;2023-08-06T04:18:30;21.00;71.80
37052;DHT22;22964;52.272;13.356;2023-08-06T04:20:57;21.00;71.40
37052;DHT22;22964;52.272;13.356;2023-08-06T04:23:24;21.00;71.50
37052;DHT22;22964;52.272;13.356;2023-08-06T04:25:56;21.00;71.50
37052;DHT22;22964;52.272;13.356;2023-08-06T04:28:23;21.00;71.70
37052;DHT22;22964;52.272;13.356;2023-08-06T04:30:49;21.00;71.50
37052;DHT22;22964;52.272;13.356;2023-08-06T04:33:14;21.00;71.70
37052;DHT22;22964;52.272;13.356;2023-08-06T04:35:41;21.00;71.70
37052;DHT22;22964;52.272;13.356;2023-08-06T04:38:07;21.00;71.80
37052;DHT22;22964;52.272;13.356;2023-08-06T04:40:34;21.00;71.90
37052;DHT22;22964;52.272;13.356;2023-08-06T04:43:00;21.00;72.00
37052;DHT22;22964;52.272;13.356;2023-08-06T04:45:27;21.00;72.10
37052;DHT22;22964;52.272;13.356;2023-08-06T04:47:53;21.00;72.10
37052;DHT22;22964;52.272;13.356;2023-08-06T04:50:22;20.90;72.00
37052;DHT22;22964;52.272;13.356;2023-08-06T04:52:47;21.00;72.40
37052;DHT22;22964;52.272;13.356;2023-08-06T04:55:13;21.00;72.30
37052;DHT22;22964;52.272;13.356;2023-08-06T04:57:39;21.00;72.40
37052;DHT22;22964;52.272;13.356;2023-08-06T05:00:05;21.00;72.30
37052;DHT22;22964;52.272;13.356;2023-08-06T05:02:31;21.00;72.00
37052;DHT22;22964;52.272;13.356;2023-08-06T05:04:58;21.00;72.00
37052;DHT22;22964;52.272;13.356;2023-08-06T05:07:24;20.90;72.10
37052;DHT22;22964;52.272;13.356;2023-08-06T05:09:49;20.90;72.10
37052;DHT22;22964;52.272;13.356;2023-08-06T05:12:15;20.90;72.30
37052;DHT22;22964;52.272;13.356;2023-08-06T05:14:41;20.90;72.40
37052;DHT22;22964;52.272;13.356;2023-08-06T05:17:06;20.90;72.40
37052;DHT22;22964;52.272;13.356;2023-08-06T05:19:32;21.00;72.40
37052;DHT22;22964;52.272;13.356;2023-08-06T05:21:58;21.00;72.40
37052;DHT22;22964;52.272;13.356;2023-08-06T05:24:23;21.00;72.30
37052;DHT22;22964;52.272;13.356;2023-08-06T05:26:49;20.90;72.20
37052;DHT22;22964;52.272;13.356;2023-08-06T05:29:16;20.90;72.40
37052;DHT22;22964;52.272;13.356;2023-08-06T05:31:42;21.00;72.60
37052;DHT22;22964;52.272;13.356;2023-08-06T05:34:08;21.00;72.60
37052;DHT22;22964;52.272;13.356;2023-08-06T05:36:34;20.90;72.60
37052;DHT22;22964;52.272;13.356;2023-08-06T05:38:59;21.00;72.80
37052;DHT22;22964;52.272;13.356;2023-08-06T05:41:25;21.00;72.80
37052;DHT22;22964;52.272;13.356;2023-08-06T05:43:51;21.00;72.70
37052;DHT22;22964;52.272;13.356;2023-08-06T05:46:17;21.00;72.90
37052;DHT22;22964;52.272;13.356;2023-08-06T05:48:42;21.00;73.00
37052;DHT22;22964;52.272;13.356;2023-08-06T05:51:08;21.00;73.20
37052;DHT22;22964;52.272;13.356;2023-08-06T05:53:34;21.00;73.40
37052;DHT22;22964;52.272;13.356;2023-08-06T05:55:59;21.10;73.50
37052;DHT22;22964;52.272;13.356;2023-08-06T05:58:25;21.10;73.50
37052;DHT22;22964;52.272;13.356;2023-08-06T06:00:54;21.10;73.60
37052;DHT22;22964;52.272;13.356;2023-08-06T06:03:20;21.10;73.70
37052;DHT22;22964;52.272;13.356;2023-08-06T06:05:46;21.10;73.80
37052;DHT22;22964;52.272;13.356;2023-08-06T06:08:11;21.10;73.90
37052;DHT22;22964;52.272;13.356;2023-08-06T06:10:37;21.20;73.90
37052;DHT22;22964;52.272;13.356;2023-08-06T06:13:03;21.20;73.70
37052;DHT22;22964;52.272;13.356;2023-08-06T06:15:28;21.20;73.70
37052;DHT22;22964;52.272;13.356;2023-08-06T06:17:54;21.20;74.20
37052;DHT22;22964;52.272;13.356;2023-08-06T06:20:20;21.20;73.80
37052;DHT22;22964;52.272;13.356;2023-08-06T06:22:45;21.20;73.80
37052;DHT22;22964;52.272;13.356;2023-08-06T06:25:11;21.20;73.70
37052;DHT22;22964;52.272;13.356;2023-08-06T06:27:37;21.20;73.70
37052;DHT22;22964;52.272;13.356;2023-08-06T06:30:03;21.20;73.60
37052;DHT22;22964;52.272;13.356;2023-08-06T06:32:29;21.20;73.50
37052;DHT22;22964;52.272;13.356;2023-08-06T06:34:55;21.20;73.50
37052;DHT22;22964;52.272;13.356;2023-08-06T06:37:21;21.30;73.50
37052;DHT22;22964;52.272;13.356;2023-08-06T06:39:46;21.30;73.50
37052;DHT22;22964;52.272;13.356;2023-08-06T06:42:12;21.30;73.40
37052;DHT22;22964;52.272;13.356;2023-08-06T06:44:43;21.30;73.50
37052;DHT22;22964;52.272;13.356;2023-08-06T06:47:09;21.30;73.40
37052;DHT22;22964;52.272;13.356;2023-08-06T06:49:35;21.40;73.40
37052;DHT22;22964;52.272;13.356;2023-08-06T06:52:00;21.40;73.50
37052;DHT22;22964;52.272;13.356;2023-08-06T06:54:26;21.40;73.40
37052;DHT22;22964;52.272;13.356;2023-08-06T06:56:52;21.40;73.30
37052;DHT22;22964;52.272;13.356;2023-08-06T06:59:17;21.50;73.30
37052;DHT22;22964;52.272;13.356;2023-08-06T07:01:43;21.50;73.20
37052;DHT22;22964;52.272;13.356;2023-08-06T07:04:09;21.50;73.10
37052;DHT22;22964;52.272;13.356;2023-08-06T07:06:34;21.50;73.00
37052;DHT22;22964;52.272;13.356;2023-08-06T07:09:00;21.50;72.90
37052;DHT22;22964;52.272;13.356;2023-08-06T07:11:26;21.50;72.80
37052;DHT22;22964;52.272;13.356;2023-08-06T07:13:56;21.50;72.70
37052;DHT22;22964;52.272;13.356;2023-08-06T07:16:23;21.50;72.90
37052;DHT22;22964;52.272;13.356;2023-08-06T07:18:50;21.50;72.80
37052;DHT22;22964;52.272;13.356;2023-08-06T07:21:16;21.50;72.80
37052;DHT22;22964;52.272;13.356;2023-08-06T07:23:41;21.50;72.90
37052;DHT22;22964;52.272;13.356;2023-08-06T07:26:07;21.60;72.90
37052;DHT22;22964;52.272;13.356;2023-08-06T07:28:34;21.60;72.90
37052;DHT22;22964;52.272;13.356;2023-08-06T07:31:00;21.60;73.20
37052;DHT22;22964;52.272;13.356;2023-08-06T07:33:28;21.60;73.20
37052;DHT22;22964;52.272;13.356;2023-08-06T07:35:53;21.60;73.30
37052;DHT22;22964;52.272;13.356;2023-08-06T07:38:19;21.70;73.50
37052;DHT22;22964;52.272;13.356;2023-08-06T07:40:45;21.70;73.70
37052;DHT22;22964;52.272;13.356;2023-08-06T07:43:11;21.80;74.20
37052;DHT22;22964;52.272;13.356;2023-08-06T07:45:37;21.80;73.50
37052;DHT22;22964;52.272;13.356;2023-08-06T07:48:03;21.80;73.50
37052;DHT22;22964;52.272;13.356;2023-08-06T07:50:29;21.90;73.70
37052;DHT22;22964;52.272;13.356;2023-08-06T07:52:55;21.90;73.70
37052;DHT22;22964;52.272;13.356;2023-08-06T07:55:21;21.90;73.70
37052;DHT22;22964;52.272;13.356;2023-08-06T07:57:46;22.00;73.60
37052;DHT22;22964;52.272;13.356;2023-08-06T08:00:12;22.00;73.20
37052;DHT22;22964;52.272;13.356;2023-08-06T08:02:38;22.10;73.10
37052;DHT22;22964;52.272;13.356;2023-08-06T08:05:04;22.10;72.90
37052;DHT22;22964;52.272;13.356;2023-08-06T08:07:31;22.10;72.60
37052;DHT22;22964;52.272;13.356;2023-08-06T08:09:56;22.20;72.60
37052;DHT22;22964;52.272;13.356;2023-08-06T08:12:22;22.20;72.60
37052;DHT22;22964;52.272;13.356;2023-08-06T08:14:48;22.20;72.70
37052;DHT22;22964;52.272;13.356;2023-08-06T08:17:14;22.30;72.50
37052;DHT22;22964;52.272;13.356;2023-08-06T08:19:43;22.30;72.20
37052;DHT22;22964;52.272;13.356;2023-08-06T08:22:09;22.30;72.10
37052;DHT22;22964;52.272;13.356;2023-08-06T08:24:35;22.30;72.10
37052;DHT22;22964;52.272;13.356;2023-08-06T08:27:00;22.30;72.00
37052;DHT22;22964;52.272;13.356;2023-08-06T08:29:26;22.30;71.90
37052;DHT22;22964;52.272;13.356;2023-08-06T08:31:51;22.30;72.00
37052;DHT22;22964;52.272;13.356;2023-08-06T08:34:17;22.30;72.00
37052;DHT22;22964;52.272;13.356;2023-08-06T08:36:43;22.30;71.90
37052;DHT22;22964;52.272;13.356;2023-08-06T08:39:12;22.30;72.00
37052;DHT22;22964;52.272;13.356;2023-08-06T08:41:39;22.30;72.20
37052;DHT22;22964;52.272;13.356;2023-08-06T08:44:08;22.30;72.20
37052;DHT22;22964;52.272;13.356;2023-08-06T08:46:36;22.30;72.30
37052;DHT22;22964;52.272;13.356;2023-08-06T08:49:03;22.30;72.30
37052;DHT22;22964;52.272;13.356;2023-08-06T08:51:30;22.30;72.50
37052;DHT22;22964;52.272;13.356;2023-08-06T08:53:57;22.30;72.50
37052;DHT22;22964;52.272;13.356;2023-08-06T08:56:23;22.40;72.50
37052;DHT22;22964;52.272;13.356;2023-08-06T08:58:50;22.40;72.60
37052;DHT22;22964;52.272;13.356;2023-08-06T09:01:15;22.40;72.90
37052;DHT22;22964;52.272;13.356;2023-08-06T09:03:43;22.40;72.80
37052;DHT22;22964;52.272;13.356;2023-08-06T09:06:11;22.50;72.60
37052;DHT22;22964;52.272;13.356;2023-08-06T09:08:45;22.50;72.40
37052;DHT22;22964;52.272;13.356;2023-08-06T09:11:13;22.40;72.40
37052;DHT22;22964;52.272;13.356;2023-08-06T09:13:38;22.50;72.20
37052;DHT22;22964;52.272;13.356;2023-08-06T09:16:04;22.50;72.10
37052;DHT22;22964;52.272;13.356;2023-08-06T09:18:30;22.50;72.00
37052;DHT22;22964;52.272;13.356;2023-08-06T09:20:57;22.50;71.90
37052;DHT22;22964;52.272;13.356;2023-08-06T09:23:31;22.50;71.60
37052;DHT22;22964;52.272;13.356;2023-08-06T09:26:00;22.50;71.70
37052;DHT22;22964;52.272;13.356;2023-08-06T09:28:37;22.50;71.60
37052;DHT22;22964;52.272;13.356;2023-08-06T09:31:09;22.50;71.80
37052;DHT22;22964;52.272;13.356;2023-08-06T09:33:38;22.50;71.70
37052;DHT22;22964;52.272;13.356;2023-08-06T09:36:10;22.50;71.90
37052;DHT22;22964;52.272;13.356;2023-08-06T09:38:40;22.50;72.20
37052;DHT22;22964;52.272;13.356;2023-08-06T09:41:06;22.50;72.10
37052;DHT22;22964;52.272;13.356;2023-08-06T09:43:43;22.60;72.30
37052;DHT22;22964;52.272;13.356;2023-08-06T09:46:15;22.50;72.40
37052;DHT22;22964;52.272;13.356;2023-08-06T09:48:45;22.60;72.60
37052;DHT22;22964;52.272;13.356;2023-08-06T09:51:12;22.60;72.50
37052;DHT22;22964;52.272;13.356;2023-08-06T09:53:40;22.60;72.10
37052;DHT22;22964;52.272;13.356;2023-08-06T09:56:06;22.60;72.00
37052;DHT22;22964;52.272;13.356;2023-08-06T09:58:32;22.60;72.00
37052;DHT22;22964;52.272;13.356;2023-08-06T10:01:00;22.70;72.00
37052;DHT22;22964;52.272;13.356;2023-08-06T10:03:28;22.70;71.90
37052;DHT22;22964;52.272;13.356;2023-08-06T10:05:55;22.70;71.80
37052;DHT22;22964;52.272;13.356;2023-08-06T10:08:21;22.70;71.80
37052;DHT22;22964;52.272;13.356;2023-08-06T10:10:47;22.70;71.80
37052;DHT22;22964;52.272;13.356;2023-08-06T10:13:13;22.70;72.00
37052;DHT22;22964;52.272;13.356;2023-08-06T10:15:40;22.70;72.00
37052;DHT22;22964;52.272;13.356;2023-08-06T10:18:07;22.70;72.00
37052;DHT22;22964;52.272;13.356;2023-08-06T10:20:36;22.70;72.10
37052;DHT22;22964;52.272;13.356;2023-08-06T10:23:03;22.80;72.40
37052;DHT22;22964;52.272;13.356;2023-08-06T10:25:34;22.80;72.30
37052;DHT22;22964;52.272;13.356;2023-08-06T10:28:01;22.80;72.40
37052;DHT22;22964;52.272;13.356;2023-08-06T10:30:33;22.80;72.10
37052;DHT22;22964;52.272;13.356;2023-08-06T10:33:03;22.80;71.80
37052;DHT22;22964;52.272;13.356;2023-08-06T10:35:47;22.80;71.90
37052;DHT22;22964;52.272;13.356;2023-08-06T10:38:19;22.80;72.00
37052;DHT22;22964;52.272;13.356;2023-08-06T10:43:33;22.80;71.60
37052;DHT22;22964;52.272;13.356;2023-08-06T10:46:03;22.80;71.60
37052;DHT22;22964;52.272;13.356;2023-08-06T10:48:44;22.80;71.60
37052;DHT22;22964;52.272;13.356;2023-08-06T10:51:12;22.80;71.60
37052;DHT22;22964;52.272;13.356;2023-08-06T10:53:42;22.80;71.80
37052;DHT22;22964;52.272;13.356;2023-08-06T10:56:28;22.80;72.00
37052;DHT22;22964;52.272;13.356;2023-08-06T10:58:55;22.80;71.60
37052;DHT22;22964;52.272;13.356;2023-08-06T11:01:28;22.80;71.60
37052;DHT22;22964;52.272;13.356;2023-08-06T11:03:55;22.80;71.50
37052;DHT22;22964;52.272;13.356;2023-08-06T11:06:22;22.80;71.50
37052;DHT22;22964;52.272;13.356;2023-08-06T11:08:50;22.80;71.70
37052;DHT22;22964;52.272;13.356;2023-08-06T11:11:17;22.80;71.80
37052;DHT22;22964;52.272;13.356;2023-08-06T11:13:45;22.80;71.80
37052;DHT22;22964;52.272;13.356;2023-08-06T11:16:13;22.80;71.60
37052;DHT22;22964;52.272;13.356;2023-08-06T11:18:40;22.80;71.80
37052;DHT22;22964;52.272;13.356;2023-08-06T11:21:07;22.80;71.80
37052;DHT22;22964;52.272;13.356;2023-08-06T11:23:34;22.90;71.70
37052;DHT22;22964;52.272;13.356;2023-08-06T11:26:00;22.90;71.70
37052;DHT22;22964;52.272;13.356;2023-08-06T11:28:26;22.90;71.80
37052;DHT22;22964;52.272;13.356;2023-08-06T11:30:53;22.90;71.80
37052;DHT22;22964;52.272;13.356;2023-08-06T11:33:22;22.90;71.80
37052;DHT22;22964;52.272;13.356;2023-08-06T11:35:48;22.90;71.80
37052;DHT22;22964;52.272;13.356;2023-08-06T11:38:14;22.90;71.70
37052;DHT22;22964;52.272;13.356;2023-08-06T11:40:52;22.90;71.80
37052;DHT22;22964;52.272;13.356;2023-08-06T11:43:19;23.00;71.80
37052;DHT22;22964;52.272;13.356;2023-08-06T11:45:48;22.90;71.40
37052;DHT22;22964;52.272;13.356;2023-08-06T11:48:14;23.00;71.50
37052;DHT22;22964;52.272;13.356;2023-08-06T11:50:40;23.00;71.70
37052;DHT22;22964;52.272;13.356;2023-08-06T11:53:05;23.00;71.70
37052;DHT22;22964;52.272;13.356;2023-08-06T11:55:32;23.00;71.80
37052;DHT22;22964;52.272;13.356;2023-08-06T11:57:59;23.00;71.80
37052;DHT22;22964;52.272;13.356;2023-08-06T12:00:29;23.10;71.90
37052;DHT22;22964;52.272;13.356;2023-08-06T12:02:55;23.10;71.80
37052;DHT22;22964;52.272;13.356;2023-08-06T12:05:23;23.10;72.80
37052;DHT22;22964;52.272;13.356;2023-08-06T12:07:52;23.10;72.10
37052;DHT22;22964;52.272;13.356;2023-08-06T12:10:19;23.20;72.00
37052;DHT22;22964;52.272;13.356;2023-08-06T12:12:46;23.20;71.90
37052;DHT22;22964;52.272;13.356;2023-08-06T12:15:12;23.20;72.10
37052;DHT22;22964;52.272;13.356;2023-08-06T12:17:38;23.20;72.00
37052;DHT22;22964;52.272;13.356;2023-08-06T12:20:05;23.30;72.00
37052;DHT22;22964;52.272;13.356;2023-08-06T12:22:32;23.30;72.00
37052;DHT22;22964;52.272;13.356;2023-08-06T12:25:04;23.40;72.70
37052;DHT22;22964;52.272;13.356;2023-08-06T12:27:34;23.40;71.70
37052;DHT22;22964;52.272;13.356;2023-08-06T12:30:00;23.40;71.30
37052;DHT22;22964;52.272;13.356;2023-08-06T12:32:26;23.50;71.30
37052;DHT22;22964;52.272;13.356;2023-08-06T12:34:51;23.50;71.10
37052;DHT22;22964;52.272;13.356;2023-08-06T12:37:17;23.50;71.00
37052;DHT22;22964;52.272;13.356;2023-08-06T12:39:43;23.50;71.00
37052;DHT22;22964;52.272;13.356;2023-08-06T12:42:09;23.50;70.90
37052;DHT22;22964;52.272;13.356;2023-08-06T12:44:35;23.50;70.80
37052;DHT22;22964;52.272;13.356;2023-08-06T12:47:01;23.50;71.20
37052;DHT22;22964;52.272;13.356;2023-08-06T12:49:27;23.50;71.40
37052;DHT22;22964;52.272;13.356;2023-08-06T12:51:54;23.50;71.20
37052;DHT22;22964;52.272;13.356;2023-08-06T12:54:22;23.60;71.90
37052;DHT22;22964;52.272;13.356;2023-08-06T12:56:48;23.60;70.80
37052;DHT22;22964;52.272;13.356;2023-08-06T12:59:15;23.60;70.20
37052;DHT22;22964;52.272;13.356;2023-08-06T13:01:42;23.60;70.00
37052;DHT22;22964;52.272;13.356;2023-08-06T13:04:08;23.60;70.20
37052;DHT22;22964;52.272;13.356;2023-08-06T13:06:34;23.60;71.30
37052;DHT22;22964;52.272;13.356;2023-08-06T13:09:05;23.60;70.40
37052;DHT22;22964;52.272;13.356;2023-08-06T13:11:31;23.60;70.30
37052;DHT22;22964;52.272;13.356;2023-08-06T13:14:07;23.70;70.50
37052;DHT22;22964;52.272;13.356;2023-08-06T13:16:34;23.70;70.50
37052;DHT22;22964;52.272;13.356;2023-08-06T13:19:00;23.70;70.40
37052;DHT22;22964;52.272;13.356;2023-08-06T13:21:33;23.80;70.20
37052;DHT22;22964;52.272;13.356;2023-08-06T13:24:02;23.80;69.90
37052;DHT22;22964;52.272;13.356;2023-08-06T13:26:29;23.80;69.70
37052;DHT22;22964;52.272;13.356;2023-08-06T13:28:59;23.80;69.60
37052;DHT22;22964;52.272;13.356;2023-08-06T13:31:26;23.80;69.40
37052;DHT22;22964;52.272;13.356;2023-08-06T13:33:53;23.80;69.30
37052;DHT22;22964;52.272;13.356;2023-08-06T13:36:21;23.80;69.40
37052;DHT22;22964;52.272;13.356;2023-08-06T13:38:47;23.70;68.70
37052;DHT22;22964;52.272;13.356;2023-08-06T13:41:12;23.70;67.70
37052;DHT22;22964;52.272;13.356;2023-08-06T13:43:39;23.60;66.70
37052;DHT22;22964;52.272;13.356;2023-08-06T13:46:05;23.50;65.80
37052;DHT22;22964;52.272;13.356;2023-08-06T13:48:31;23.40;65.50
37052;DHT22;22964;52.272;13.356;2023-08-06T13:50:56;23.40;65.00
37052;DHT22;22964;52.272;13.356;2023-08-06T13:53:22;23.20;64.60
37052;DHT22;22964;52.272;13.356;2023-08-06T13:55:48;23.10;64.60
37052;DHT22;22964;52.272;13.356;2023-08-06T13:58:13;22.90;64.40
37052;DHT22;22964;52.272;13.356;2023-08-06T14:00:39;22.80;64.40
37052;DHT22;22964;52.272;13.356;2023-08-06T14:03:05;22.60;64.50
37052;DHT22;22964;52.272;13.356;2023-08-06T14:05:30;22.50;64.90
37052;DHT22;22964;52.272;13.356;2023-08-06T14:07:56;22.40;65.20
37052;DHT22;22964;52.272;13.356;2023-08-06T14:10:22;22.20;65.50
37052;DHT22;22964;52.272;13.356;2023-08-06T14:12:47;22.10;65.70
37052;DHT22;22964;52.272;13.356;2023-08-06T14:15:13;22.00;65.80
37052;DHT22;22964;52.272;13.356;2023-08-06T14:17:39;22.00;66.10
37052;DHT22;22964;52.272;13.356;2023-08-06T14:20:06;21.80;66.10
37052;DHT22;22964;52.272;13.356;2023-08-06T14:22:33;21.80;66.60
37052;DHT22;22964;52.272;13.356;2023-08-06T14:24:59;21.70;67.00
37052;DHT22;22964;52.272;13.356;2023-08-06T14:27:25;21.60;67.30
37052;DHT22;22964;52.272;13.356;2023-08-06T14:29:51;21.50;67.70
37052;DHT22;22964;52.272;13.356;2023-08-06T14:32:16;21.50;68.20
37052;DHT22;22964;52.272;13.356;2023-08-06T14:34:45;21.40;68.80
37052;DHT22;22964;52.272;13.356;2023-08-06T14:37:11;21.40;69.40
37052;DHT22;22964;52.272;13.356;2023-08-06T14:39:37;21.40;70.00
37052;DHT22;22964;52.272;13.356;2023-08-06T14:42:04;21.30;70.20
37052;DHT22;22964;52.272;13.356;2023-08-06T14:44:29;21.40;70.40
37052;DHT22;22964;52.272;13.356;2023-08-06T14:46:55;21.40;70.50
37052;DHT22;22964;52.272;13.356;2023-08-06T14:49:21;21.40;70.70
37052;DHT22;22964;52.272;13.356;2023-08-06T14:51:46;21.40;70.90
37052;DHT22;22964;52.272;13.356;2023-08-06T14:54:12;21.40;71.00
37052;DHT22;22964;52.272;13.356;2023-08-06T14:56:38;21.40;70.90
37052;DHT22;22964;52.272;13.356;2023-08-06T14:59:04;21.40;71.00
37052;DHT22;22964;52.272;13.356;2023-08-06T15:01:29;21.40;71.00
37052;DHT22;22964;52.272;13.356;2023-08-06T15:03:55;21.30;71.80
37052;DHT22;22964;52.272;13.356;2023-08-06T15:06:21;21.30;71.10
37052;DHT22;22964;52.272;13.356;2023-08-06T15:08:46;21.30;71.30
37052;DHT22;22964;52.272;13.356;2023-08-06T15:11:14;21.30;71.50
37052;DHT22;22964;52.272;13.356;2023-08-06T15:13:40;21.30;71.80
37052;DHT22;22964;52.272;13.356;2023-08-06T15:16:06;21.30;71.80
37052;DHT22;22964;52.272;13.356;2023-08-06T15:18:32;21.30;71.80
37052;DHT22;22964;52.272;13.356;2023-08-06T15:20:57;21.30;71.90
37052;DHT22;22964;52.272;13.356;2023-08-06T15:23:24;21.30;71.90